sensor_id;sensor_type;location;lat;lon;timestamp;P1;durP1;ratioP1;P2;durP2;ratioP2
61840;SDS011;47773;53.174;6.614;2023-03-19T00:01:54;27.15;;;19.45;;
61840;SDS011;47773;53.174;6.614;2023-03-19T00:04:21;29.20;;;19.23;;
61840;SDS011;47773;53.174;6.614;2023-03-19T00:06:48;27.20;;;19.27;;
61840;SDS011;47773;53.174;6.614;2023-03-19T00:09:14;28.50;;;20.08;;
61840;SDS011;47773;53.174;6.614;2023-03-19T00:11:41;30.73;;;20.77;;
61840;SDS011;47773;53.174;6.614;2023-03-19T00:14:07;27.60;;;20.80;;
61840;SDS011;47773;53.174;6.614;2023-03-19T00:16:33;28.58;;;20.30;;
61840;SDS011;47773;53.174;6.614;2023-03-19T00:18:59;30.17;;;20.35;;
61840;SDS011;47773;53.174;6.614;2023-03-19T00:21:25;30.75;;;20.15;;
61840;SDS011;47773;53.174;6.614;2023-03-19T00:23:51;29.23;;;20.40;;
61840;SDS011;47773;53.174;6.614;2023-03-19T00:26:17;28.92;;;20.27;;
61840;SDS011;47773;53.174;6.614;2023-03-19T00:28:43;28.52;;;19.73;;
61840;SDS011;47773;53.174;6.614;2023-03-19T00:31:09;28.88;;;19.65;;
61840;SDS011;47773;53.174;6.614;2023-03-19T00:33:40;26.53;;;18.80;;
61840;SDS011;47773;53.174;6.614;2023-03-19T00:36:07;26.30;;;19.30;;
61840;SDS011;47773;53.174;6.614;2023-03-19T00:38:33;27.33;;;19.15;;
61840;SDS011;47773;53.174;6.614;2023-03-19T00:41:03;27.10;;;19.73;;
61840;SDS011;47773;53.174;6.614;2023-03-19T00:43:30;28.23;;;19.00;;
61840;SDS011;47773;53.174;6.614;2023-03-19T00:45:56;34.20;;;20.42;;
61840;SDS011;47773;53.174;6.614;2023-03-19T00:48:22;30.83;;;19.65;;
61840;SDS011;47773;53.174;6.614;2023-03-19T00:50:48;26.95;;;19.60;;
61840;SDS011;47773;53.174;6.614;2023-03-19T00:53:14;28.10;;;19.60;;
61840;SDS011;47773;53.174;6.614;2023-03-19T00:55:41;32.05;;;20.42;;
61840;SDS011;47773;53.174;6.614;2023-03-19T00:58:07;27.15;;;19.42;;
61840;SDS011;47773;53.174;6.614;2023-03-19T01:00:34;30.50;;;19.35;;
61840;SDS011;47773;53.174;6.614;2023-03-19T01:03:01;28.60;;;19.13;;
61840;SDS011;47773;53.174;6.614;2023-03-19T01:05:28;29.05;;;19.20;;
61840;SDS011;47773;53.174;6.614;2023-03-19T01:07:54;25.92;;;18.70;;
61840;SDS011;47773;53.174;6.614;2023-03-19T01:10:20;28.15;;;18.63;;
61840;SDS011;47773;53.174;6.614;2023-03-19T01:12:48;30.70;;;20.25;;
61840;SDS011;47773;53.174;6.614;2023-03-19T01:15:15;26.27;;;18.20;;
61840;SDS011;47773;53.174;6.614;2023-03-19T01:17:41;28.00;;;18.45;;
61840;SDS011;47773;53.174;6.614;2023-03-19T01:20:09;27.60;;;18.40;;
61840;SDS011;47773;53.174;6.614;2023-03-19T01:22:42;27.83;;;18.60;;
61840;SDS011;47773;53.174;6.614;2023-03-19T01:25:09;26.88;;;17.25;;
61840;SDS011;47773;53.174;6.614;2023-03-19T01:27:37;23.13;;;15.63;;
61840;SDS011;47773;53.174;6.614;2023-03-19T01:30:03;21.67;;;15.80;;
61840;SDS011;47773;53.174;6.614;2023-03-19T01:32:29;24.90;;;15.90;;
61840;SDS011;47773;53.174;6.614;2023-03-19T01:34:55;23.92;;;14.93;;
61840;SDS011;47773;53.174;6.614;2023-03-19T01:37:21;27.67;;;16.83;;
61840;SDS011;47773;53.174;6.614;2023-03-19T01:39:47;21.67;;;15.05;;
61840;SDS011;47773;53.174;6.614;2023-03-19T01:42:12;23.02;;;15.23;;
61840;SDS011;47773;53.174;6.614;2023-03-19T01:44:39;20.08;;;14.57;;
61840;SDS011;47773;53.174;6.614;2023-03-19T01:49:54;19.73;;;14.38;;
61840;SDS011;47773;53.174;6.614;2023-03-19T01:52:22;20.67;;;14.13;;
61840;SDS011;47773;53.174;6.614;2023-03-19T01:54:51;22.85;;;14.60;;
61840;SDS011;47773;53.174;6.614;2023-03-19T01:57:17;20.20;;;14.27;;
61840;SDS011;47773;53.174;6.614;2023-03-19T01:59:45;23.70;;;13.98;;
61840;SDS011;47773;53.174;6.614;2023-03-19T02:04:43;22.13;;;14.18;;
61840;SDS011;47773;53.174;6.614;2023-03-19T02:07:11;18.55;;;13.65;;
61840;SDS011;47773;53.174;6.614;2023-03-19T02:09:38;19.60;;;13.75;;
61840;SDS011;47773;53.174;6.614;2023-03-19T02:12:05;18.65;;;12.75;;
61840;SDS011;47773;53.174;6.614;2023-03-19T02:14:33;16.65;;;11.30;;
61840;SDS011;47773;53.174;6.614;2023-03-19T02:17:00;17.67;;;12.60;;
61840;SDS011;47773;53.174;6.614;2023-03-19T02:22:06;17.83;;;12.05;;
61840;SDS011;47773;53.174;6.614;2023-03-19T02:24:38;18.90;;;12.48;;
61840;SDS011;47773;53.174;6.614;2023-03-19T02:27:13;20.60;;;13.32;;
61840;SDS011;47773;53.174;6.614;2023-03-19T02:29:39;18.67;;;12.32;;
61840;SDS011;47773;53.174;6.614;2023-03-19T02:32:05;24.52;;;13.23;;
61840;SDS011;47773;53.174;6.614;2023-03-19T02:34:32;17.77;;;12.77;;
61840;SDS011;47773;53.174;6.614;2023-03-19T02:37:02;20.33;;;13.18;;
61840;SDS011;47773;53.174;6.614;2023-03-19T02:39:33;18.67;;;13.43;;
61840;SDS011;47773;53.174;6.614;2023-03-19T02:42:10;18.30;;;12.73;;
61840;SDS011;47773;53.174;6.614;2023-03-19T02:44:36;18.35;;;12.85;;
61840;SDS011;47773;53.174;6.614;2023-03-19T02:47:02;19.88;;;13.93;;
61840;SDS011;47773;53.174;6.614;2023-03-19T02:49:28;19.13;;;13.55;;
61840;SDS011;47773;53.174;6.614;2023-03-19T02:51:54;21.98;;;12.68;;
61840;SDS011;47773;53.174;6.614;2023-03-19T02:54:20;20.35;;;13.45;;
61840;SDS011;47773;53.174;6.614;2023-03-19T02:56:46;17.73;;;12.23;;
61840;SDS011;47773;53.174;6.614;2023-03-19T02:59:13;22.02;;;12.52;;
61840;SDS011;47773;53.174;6.614;2023-03-19T03:01:38;17.10;;;11.43;;
61840;SDS011;47773;53.174;6.614;2023-03-19T03:04:05;17.17;;;11.52;;
61840;SDS011;47773;53.174;6.614;2023-03-19T03:06:30;16.00;;;11.15;;
61840;SDS011;47773;53.174;6.614;2023-03-19T03:08:56;16.88;;;11.23;;
61840;SDS011;47773;53.174;6.614;2023-03-19T03:11:22;14.68;;;10.55;;
61840;SDS011;47773;53.174;6.614;2023-03-19T03:13:47;18.25;;;11.05;;
61840;SDS011;47773;53.174;6.614;2023-03-19T03:16:13;17.73;;;11.23;;
61840;SDS011;47773;53.174;6.614;2023-03-19T03:18:39;15.73;;;10.68;;
61840;SDS011;47773;53.174;6.614;2023-03-19T03:21:05;14.45;;;10.05;;
61840;SDS011;47773;53.174;6.614;2023-03-19T03:23:31;14.52;;;9.68;;
61840;SDS011;47773;53.174;6.614;2023-03-19T03:25:57;16.77;;;10.10;;
61840;SDS011;47773;53.174;6.614;2023-03-19T03:28:22;17.38;;;9.30;;
61840;SDS011;47773;53.174;6.614;2023-03-19T03:30:48;13.75;;;9.18;;
61840;SDS011;47773;53.174;6.614;2023-03-19T03:33:14;14.48;;;9.23;;
61840;SDS011;47773;53.174;6.614;2023-03-19T03:35:41;12.88;;;8.75;;
61840;SDS011;47773;53.174;6.614;2023-03-19T03:38:07;13.18;;;8.48;;
61840;SDS011;47773;53.174;6.614;2023-03-19T03:40:32;10.68;;;8.18;;
61840;SDS011;47773;53.174;6.614;2023-03-19T03:42:59;14.18;;;7.38;;
61840;SDS011;47773;53.174;6.614;2023-03-19T03:45:25;13.88;;;7.57;;
61840;SDS011;47773;53.174;6.614;2023-03-19T03:47:51;13.05;;;7.28;;
61840;SDS011;47773;53.174;6.614;2023-03-19T03:50:16;8.35;;;6.20;;
61840;SDS011;47773;53.174;6.614;2023-03-19T03:52:42;10.88;;;6.18;;
61840;SDS011;47773;53.174;6.614;2023-03-19T03:55:08;11.82;;;6.65;;
61840;SDS011;47773;53.174;6.614;2023-03-19T03:57:34;8.18;;;5.70;;
61840;SDS011;47773;53.174;6.614;2023-03-19T04:00:00;9.27;;;6.35;;
61840;SDS011;47773;53.174;6.614;2023-03-19T04:02:25;11.10;;;6.07;;
61840;SDS011;47773;53.174;6.614;2023-03-19T04:04:52;7.75;;;5.97;;
61840;SDS011;47773;53.174;6.614;2023-03-19T04:07:18;8.63;;;6.05;;
61840;SDS011;47773;53.174;6.614;2023-03-19T04:09:44;8.52;;;6.32;;
61840;SDS011;47773;53.174;6.614;2023-03-19T04:12:10;8.98;;;5.80;;
61840;SDS011;47773;53.174;6.614;2023-03-19T04:14:39;8.10;;;5.38;;
61840;SDS011;47773;53.174;6.614;2023-03-19T04:17:05;11.30;;;5.90;;
61840;SDS011;47773;53.174;6.614;2023-03-19T04:19:30;8.02;;;5.50;;
61840;SDS011;47773;53.174;6.614;2023-03-19T04:21:56;8.07;;;5.50;;
61840;SDS011;47773;53.174;6.614;2023-03-19T04:24:23;8.65;;;5.43;;
61840;SDS011;47773;53.174;6.614;2023-03-19T04:26:49;7.75;;;5.38;;
61840;SDS011;47773;53.174;6.614;2023-03-19T04:29:16;9.90;;;5.65;;
61840;SDS011;47773;53.174;6.614;2023-03-19T04:31:42;9.48;;;5.38;;
61840;SDS011;47773;53.174;6.614;2023-03-19T04:34:09;9.80;;;5.70;;
61840;SDS011;47773;53.174;6.614;2023-03-19T04:36:36;7.07;;;4.82;;
61840;SDS011;47773;53.174;6.614;2023-03-19T04:39:02;9.52;;;5.82;;
61840;SDS011;47773;53.174;6.614;2023-03-19T04:41:29;7.63;;;5.07;;
61840;SDS011;47773;53.174;6.614;2023-03-19T04:43:54;7.57;;;5.15;;
61840;SDS011;47773;53.174;6.614;2023-03-19T04:46:20;7.82;;;5.57;;
61840;SDS011;47773;53.174;6.614;2023-03-19T04:48:46;7.63;;;4.90;;
61840;SDS011;47773;53.174;6.614;2023-03-19T04:51:11;8.93;;;5.28;;
61840;SDS011;47773;53.174;6.614;2023-03-19T04:53:37;9.02;;;5.40;;
61840;SDS011;47773;53.174;6.614;2023-03-19T04:56:04;8.90;;;5.40;;
61840;SDS011;47773;53.174;6.614;2023-03-19T04:58:31;9.35;;;4.75;;
61840;SDS011;47773;53.174;6.614;2023-03-19T05:00:56;8.23;;;5.10;;
61840;SDS011;47773;53.174;6.614;2023-03-19T05:03:22;8.55;;;5.55;;
61840;SDS011;47773;53.174;6.614;2023-03-19T05:05:48;7.28;;;5.00;;
61840;SDS011;47773;53.174;6.614;2023-03-19T05:08:14;9.65;;;5.72;;
61840;SDS011;47773;53.174;6.614;2023-03-19T05:10:39;8.32;;;5.00;;
61840;SDS011;47773;53.174;6.614;2023-03-19T05:13:05;8.00;;;5.18;;
61840;SDS011;47773;53.174;6.614;2023-03-19T05:15:31;10.98;;;5.22;;
61840;SDS011;47773;53.174;6.614;2023-03-19T05:17:57;11.00;;;5.22;;
61840;SDS011;47773;53.174;6.614;2023-03-19T05:20:23;8.15;;;5.28;;
61840;SDS011;47773;53.174;6.614;2023-03-19T05:22:50;7.93;;;5.28;;
61840;SDS011;47773;53.174;6.614;2023-03-19T05:25:17;7.57;;;5.07;;
61840;SDS011;47773;53.174;6.614;2023-03-19T05:27:43;9.55;;;5.20;;
61840;SDS011;47773;53.174;6.614;2023-03-19T05:30:09;7.53;;;5.15;;
61840;SDS011;47773;53.174;6.614;2023-03-19T05:32:36;10.27;;;5.35;;
61840;SDS011;47773;53.174;6.614;2023-03-19T05:35:02;7.38;;;5.28;;
61840;SDS011;47773;53.174;6.614;2023-03-19T05:37:28;9.98;;;5.60;;
61840;SDS011;47773;53.174;6.614;2023-03-19T05:39:54;7.32;;;5.10;;
61840;SDS011;47773;53.174;6.614;2023-03-19T05:42:20;12.88;;;5.40;;
61840;SDS011;47773;53.174;6.614;2023-03-19T05:44:45;11.32;;;5.38;;
61840;SDS011;47773;53.174;6.614;2023-03-19T05:47:11;7.07;;;4.78;;
61840;SDS011;47773;53.174;6.614;2023-03-19T05:49:37;6.90;;;5.07;;
61840;SDS011;47773;53.174;6.614;2023-03-19T05:52:02;6.22;;;4.82;;
61840;SDS011;47773;53.174;6.614;2023-03-19T05:54:28;8.38;;;5.22;;
61840;SDS011;47773;53.174;6.614;2023-03-19T05:56:54;7.78;;;5.30;;
61840;SDS011;47773;53.174;6.614;2023-03-19T05:59:20;8.52;;;5.13;;
61840;SDS011;47773;53.174;6.614;2023-03-19T06:01:46;8.40;;;5.57;;
61840;SDS011;47773;53.174;6.614;2023-03-19T06:04:11;8.52;;;5.97;;
61840;SDS011;47773;53.174;6.614;2023-03-19T06:06:37;8.30;;;5.93;;
61840;SDS011;47773;53.174;6.614;2023-03-19T06:09:03;9.15;;;6.40;;
61840;SDS011;47773;53.174;6.614;2023-03-19T06:11:29;10.13;;;5.95;;
61840;SDS011;47773;53.174;6.614;2023-03-19T06:13:55;8.60;;;6.30;;
61840;SDS011;47773;53.174;6.614;2023-03-19T06:16:21;9.98;;;6.38;;
61840;SDS011;47773;53.174;6.614;2023-03-19T06:18:47;8.70;;;6.07;;
61840;SDS011;47773;53.174;6.614;2023-03-19T06:21:12;9.02;;;6.45;;
61840;SDS011;47773;53.174;6.614;2023-03-19T06:23:38;9.82;;;6.22;;
61840;SDS011;47773;53.174;6.614;2023-03-19T06:26:04;10.77;;;6.55;;
61840;SDS011;47773;53.174;6.614;2023-03-19T06:28:30;8.48;;;6.63;;
61840;SDS011;47773;53.174;6.614;2023-03-19T06:30:57;9.82;;;6.25;;
61840;SDS011;47773;53.174;6.614;2023-03-19T06:33:22;10.70;;;7.03;;
61840;SDS011;47773;53.174;6.614;2023-03-19T06:35:51;10.73;;;6.20;;
61840;SDS011;47773;53.174;6.614;2023-03-19T06:38:17;11.18;;;6.82;;
61840;SDS011;47773;53.174;6.614;2023-03-19T06:40:43;9.13;;;6.47;;
61840;SDS011;47773;53.174;6.614;2023-03-19T06:43:09;10.60;;;6.55;;
61840;SDS011;47773;53.174;6.614;2023-03-19T06:45:34;9.68;;;6.40;;
61840;SDS011;47773;53.174;6.614;2023-03-19T06:48:00;9.05;;;6.25;;
61840;SDS011;47773;53.174;6.614;2023-03-19T06:50:26;11.40;;;7.32;;
61840;SDS011;47773;53.174;6.614;2023-03-19T06:52:52;9.00;;;6.95;;
61840;SDS011;47773;53.174;6.614;2023-03-19T06:55:17;8.98;;;6.72;;
61840;SDS011;47773;53.174;6.614;2023-03-19T06:57:47;9.27;;;6.18;;
61840;SDS011;47773;53.174;6.614;2023-03-19T07:00:13;10.75;;;7.03;;
61840;SDS011;47773;53.174;6.614;2023-03-19T07:02:39;10.77;;;6.00;;
61840;SDS011;47773;53.174;6.614;2023-03-19T07:05:05;9.98;;;6.57;;
61840;SDS011;47773;53.174;6.614;2023-03-19T07:07:31;9.95;;;7.22;;
61840;SDS011;47773;53.174;6.614;2023-03-19T07:09:57;11.20;;;7.05;;
61840;SDS011;47773;53.174;6.614;2023-03-19T07:12:22;10.63;;;6.45;;
61840;SDS011;47773;53.174;6.614;2023-03-19T07:14:51;10.70;;;6.45;;
61840;SDS011;47773;53.174;6.614;2023-03-19T07:17:18;10.07;;;6.80;;
61840;SDS011;47773;53.174;6.614;2023-03-19T07:19:43;9.95;;;6.63;;
61840;SDS011;47773;53.174;6.614;2023-03-19T07:22:09;9.00;;;7.15;;
61840;SDS011;47773;53.174;6.614;2023-03-19T07:24:35;9.02;;;6.80;;
61840;SDS011;47773;53.174;6.614;2023-03-19T07:27:00;10.77;;;6.60;;
61840;SDS011;47773;53.174;6.614;2023-03-19T07:29:27;9.50;;;7.07;;
61840;SDS011;47773;53.174;6.614;2023-03-19T07:31:52;11.15;;;7.35;;
61840;SDS011;47773;53.174;6.614;2023-03-19T07:34:18;13.50;;;6.90;;
61840;SDS011;47773;53.174;6.614;2023-03-19T07:36:44;12.02;;;7.30;;
61840;SDS011;47773;53.174;6.614;2023-03-19T07:39:11;12.45;;;7.85;;
61840;SDS011;47773;53.174;6.614;2023-03-19T07:41:37;11.90;;;7.65;;
61840;SDS011;47773;53.174;6.614;2023-03-19T07:44:02;11.48;;;7.85;;
61840;SDS011;47773;53.174;6.614;2023-03-19T07:46:28;17.88;;;8.90;;
61840;SDS011;47773;53.174;6.614;2023-03-19T07:48:54;12.05;;;8.63;;
61840;SDS011;47773;53.174;6.614;2023-03-19T07:51:20;13.25;;;8.30;;
61840;SDS011;47773;53.174;6.614;2023-03-19T07:53:45;12.93;;;9.07;;
61840;SDS011;47773;53.174;6.614;2023-03-19T07:56:11;14.88;;;9.32;;
61840;SDS011;47773;53.174;6.614;2023-03-19T07:58:37;13.10;;;9.35;;
61840;SDS011;47773;53.174;6.614;2023-03-19T08:01:03;18.10;;;9.38;;
61840;SDS011;47773;53.174;6.614;2023-03-19T08:03:28;15.60;;;9.48;;
61840;SDS011;47773;53.174;6.614;2023-03-19T08:05:54;14.13;;;9.68;;
61840;SDS011;47773;53.174;6.614;2023-03-19T08:08:20;16.30;;;10.07;;
61840;SDS011;47773;53.174;6.614;2023-03-19T08:10:45;18.85;;;10.05;;
61840;SDS011;47773;53.174;6.614;2023-03-19T08:13:12;13.18;;;9.65;;
61840;SDS011;47773;53.174;6.614;2023-03-19T08:15:38;15.07;;;10.18;;
61840;SDS011;47773;53.174;6.614;2023-03-19T08:18:04;14.80;;;10.30;;
61840;SDS011;47773;53.174;6.614;2023-03-19T08:20:30;14.40;;;9.20;;
61840;SDS011;47773;53.174;6.614;2023-03-19T08:22:56;15.75;;;9.93;;
61840;SDS011;47773;53.174;6.614;2023-03-19T08:25:22;17.05;;;11.82;;
61840;SDS011;47773;53.174;6.614;2023-03-19T08:27:49;18.42;;;12.55;;
61840;SDS011;47773;53.174;6.614;2023-03-19T08:30:15;16.42;;;12.18;;
61840;SDS011;47773;53.174;6.614;2023-03-19T08:32:41;19.20;;;12.02;;
61840;SDS011;47773;53.174;6.614;2023-03-19T08:35:09;17.15;;;12.32;;
61840;SDS011;47773;53.174;6.614;2023-03-19T08:37:35;22.23;;;12.60;;
61840;SDS011;47773;53.174;6.614;2023-03-19T08:40:01;19.13;;;12.10;;
61840;SDS011;47773;53.174;6.614;2023-03-19T08:42:28;18.67;;;12.15;;
61840;SDS011;47773;53.174;6.614;2023-03-19T08:44:55;15.20;;;11.65;;
61840;SDS011;47773;53.174;6.614;2023-03-19T08:47:20;20.08;;;13.57;;
61840;SDS011;47773;53.174;6.614;2023-03-19T08:49:48;18.90;;;12.63;;
61840;SDS011;47773;53.174;6.614;2023-03-19T08:52:15;19.40;;;11.88;;
61840;SDS011;47773;53.174;6.614;2023-03-19T08:54:41;15.35;;;11.02;;
61840;SDS011;47773;53.174;6.614;2023-03-19T08:57:07;16.60;;;10.93;;
61840;SDS011;47773;53.174;6.614;2023-03-19T08:59:32;18.58;;;11.05;;
61840;SDS011;47773;53.174;6.614;2023-03-19T09:01:58;18.08;;;10.88;;
61840;SDS011;47773;53.174;6.614;2023-03-19T09:04:24;13.88;;;9.55;;
61840;SDS011;47773;53.174;6.614;2023-03-19T09:06:50;16.10;;;9.95;;
61840;SDS011;47773;53.174;6.614;2023-03-19T09:09:19;14.40;;;9.73;;
61840;SDS011;47773;53.174;6.614;2023-03-19T09:11:46;12.52;;;9.13;;
61840;SDS011;47773;53.174;6.614;2023-03-19T09:14:12;13.02;;;9.60;;
61840;SDS011;47773;53.174;6.614;2023-03-19T09:16:40;13.13;;;9.23;;
61840;SDS011;47773;53.174;6.614;2023-03-19T09:19:07;11.63;;;8.73;;
61840;SDS011;47773;53.174;6.614;2023-03-19T09:21:33;11.20;;;8.15;;
61840;SDS011;47773;53.174;6.614;2023-03-19T09:24:00;11.93;;;8.18;;
61840;SDS011;47773;53.174;6.614;2023-03-19T09:26:26;12.10;;;8.40;;
61840;SDS011;47773;53.174;6.614;2023-03-19T09:28:52;11.60;;;7.20;;
61840;SDS011;47773;53.174;6.614;2023-03-19T09:31:18;11.77;;;7.70;;
61840;SDS011;47773;53.174;6.614;2023-03-19T09:33:44;11.80;;;7.70;;
61840;SDS011;47773;53.174;6.614;2023-03-19T09:36:09;12.45;;;8.43;;
61840;SDS011;47773;53.174;6.614;2023-03-19T09:38:35;15.18;;;8.40;;
61840;SDS011;47773;53.174;6.614;2023-03-19T09:43:40;13.02;;;8.02;;
61840;SDS011;47773;53.174;6.614;2023-03-19T09:46:29;10.40;;;6.95;;
61840;SDS011;47773;53.174;6.614;2023-03-19T09:56:56;11.82;;;7.80;;
61840;SDS011;47773;53.174;6.614;2023-03-19T09:59:22;13.60;;;7.45;;
61840;SDS011;47773;53.174;6.614;2023-03-19T10:05:02;12.38;;;7.40;;
61840;SDS011;47773;53.174;6.614;2023-03-19T10:07:45;10.77;;;7.80;;
61840;SDS011;47773;53.174;6.614;2023-03-19T10:10:28;11.88;;;6.80;;
61840;SDS011;47773;53.174;6.614;2023-03-19T10:15:28;9.50;;;6.90;;
61840;SDS011;47773;53.174;6.614;2023-03-19T10:17:57;11.15;;;7.13;;
61840;SDS011;47773;53.174;6.614;2023-03-19T10:23:22;9.80;;;7.32;;
61840;SDS011;47773;53.174;6.614;2023-03-19T10:25:54;12.77;;;7.47;;
61840;SDS011;47773;53.174;6.614;2023-03-19T10:28:22;10.90;;;7.10;;
61840;SDS011;47773;53.174;6.614;2023-03-19T10:30:53;12.25;;;7.35;;
61840;SDS011;47773;53.174;6.614;2023-03-19T10:33:29;10.60;;;7.63;;
61840;SDS011;47773;53.174;6.614;2023-03-19T10:36:08;11.15;;;7.97;;
61840;SDS011;47773;53.174;6.614;2023-03-19T10:38:42;10.70;;;8.38;;
61840;SDS011;47773;53.174;6.614;2023-03-19T10:44:02;12.27;;;7.28;;
61840;SDS011;47773;53.174;6.614;2023-03-19T10:46:37;13.10;;;8.57;;
61840;SDS011;47773;53.174;6.614;2023-03-19T10:49:03;12.43;;;8.27;;
61840;SDS011;47773;53.174;6.614;2023-03-19T10:51:30;11.63;;;7.25;;
61840;SDS011;47773;53.174;6.614;2023-03-19T10:53:56;14.93;;;8.00;;
61840;SDS011;47773;53.174;6.614;2023-03-19T10:56:26;12.60;;;7.72;;
61840;SDS011;47773;53.174;6.614;2023-03-19T10:58:57;13.52;;;7.72;;
61840;SDS011;47773;53.174;6.614;2023-03-19T11:01:46;11.75;;;7.90;;
61840;SDS011;47773;53.174;6.614;2023-03-19T11:04:18;11.15;;;7.10;;
61840;SDS011;47773;53.174;6.614;2023-03-19T11:06:52;14.27;;;8.07;;
61840;SDS011;47773;53.174;6.614;2023-03-19T11:09:40;12.10;;;7.43;;
61840;SDS011;47773;53.174;6.614;2023-03-19T11:12:16;16.38;;;8.90;;
61840;SDS011;47773;53.174;6.614;2023-03-19T11:14:47;13.82;;;8.27;;
61840;SDS011;47773;53.174;6.614;2023-03-19T11:19:57;16.07;;;10.60;;
61840;SDS011;47773;53.174;6.614;2023-03-19T11:22:27;15.82;;;10.82;;
61840;SDS011;47773;53.174;6.614;2023-03-19T11:24:58;16.42;;;10.85;;
61840;SDS011;47773;53.174;6.614;2023-03-19T11:27:27;15.80;;;9.07;;
61840;SDS011;47773;53.174;6.614;2023-03-19T11:29:56;15.25;;;9.80;;
61840;SDS011;47773;53.174;6.614;2023-03-19T11:35:11;15.95;;;10.43;;
61840;SDS011;47773;53.174;6.614;2023-03-19T11:43:29;13.07;;;9.80;;
61840;SDS011;47773;53.174;6.614;2023-03-19T11:45:44;15.07;;;9.70;;
61840;SDS011;47773;53.174;6.614;2023-03-19T11:57:31;11.07;;;7.88;;
61840;SDS011;47773;53.174;6.614;2023-03-19T12:02:53;15.55;;;9.57;;
61840;SDS011;47773;53.174;6.614;2023-03-19T12:05:32;15.88;;;9.63;;
61840;SDS011;47773;53.174;6.614;2023-03-19T12:11:02;12.95;;;9.95;;
61840;SDS011;47773;53.174;6.614;2023-03-19T12:19:16;18.33;;;10.82;;
61840;SDS011;47773;53.174;6.614;2023-03-19T12:27:21;15.73;;;10.60;;
61840;SDS011;47773;53.174;6.614;2023-03-19T12:30:17;15.07;;;10.52;;
61840;SDS011;47773;53.174;6.614;2023-03-19T12:35:56;15.13;;;9.80;;
61840;SDS011;47773;53.174;6.614;2023-03-19T12:38:36;15.13;;;10.23;;
61840;SDS011;47773;53.174;6.614;2023-03-19T12:41:07;17.92;;;10.73;;
61840;SDS011;47773;53.174;6.614;2023-03-19T12:46:02;16.45;;;10.60;;
61840;SDS011;47773;53.174;6.614;2023-03-19T12:48:34;14.73;;;10.70;;
61840;SDS011;47773;53.174;6.614;2023-03-19T12:51:07;15.70;;;10.15;;
61840;SDS011;47773;53.174;6.614;2023-03-19T12:53:44;16.67;;;10.23;;
61840;SDS011;47773;53.174;6.614;2023-03-19T12:56:34;14.30;;;9.90;;
61840;SDS011;47773;53.174;6.614;2023-03-19T13:01:59;14.27;;;9.65;;
61840;SDS011;47773;53.174;6.614;2023-03-19T13:04:48;16.35;;;10.65;;
61840;SDS011;47773;53.174;6.614;2023-03-19T13:07:27;16.30;;;10.98;;
61840;SDS011;47773;53.174;6.614;2023-03-19T13:10:04;20.02;;;11.27;;
61840;SDS011;47773;53.174;6.614;2023-03-19T13:12:36;19.42;;;11.38;;
61840;SDS011;47773;53.174;6.614;2023-03-19T13:23:22;18.67;;;12.15;;
61840;SDS011;47773;53.174;6.614;2023-03-19T13:25:54;16.98;;;11.15;;
61840;SDS011;47773;53.174;6.614;2023-03-19T13:28:30;20.52;;;12.48;;
61840;SDS011;47773;53.174;6.614;2023-03-19T13:31:03;23.98;;;13.13;;
61840;SDS011;47773;53.174;6.614;2023-03-19T13:33:32;22.92;;;14.10;;
61840;SDS011;47773;53.174;6.614;2023-03-19T13:36:00;22.60;;;14.38;;
61840;SDS011;47773;53.174;6.614;2023-03-19T13:40:58;20.00;;;12.05;;
61840;SDS011;47773;53.174;6.614;2023-03-19T13:45:53;23.02;;;12.88;;
61840;SDS011;47773;53.174;6.614;2023-03-19T13:53:52;24.52;;;14.27;;
61840;SDS011;47773;53.174;6.614;2023-03-19T13:56:21;26.48;;;15.13;;
61840;SDS011;47773;53.174;6.614;2023-03-19T13:58:49;26.77;;;15.07;;
61840;SDS011;47773;53.174;6.614;2023-03-19T14:03:55;30.13;;;16.65;;
61840;SDS011;47773;53.174;6.614;2023-03-19T14:09:15;28.00;;;15.23;;
61840;SDS011;47773;53.174;6.614;2023-03-19T14:12:10;28.70;;;15.00;;
61840;SDS011;47773;53.174;6.614;2023-03-19T14:17:25;28.13;;;14.40;;
61840;SDS011;47773;53.174;6.614;2023-03-19T14:19:59;25.58;;;14.43;;
61840;SDS011;47773;53.174;6.614;2023-03-19T14:31:17;32.60;;;16.35;;
61840;SDS011;47773;53.174;6.614;2023-03-19T14:34:01;35.55;;;17.33;;
61840;SDS011;47773;53.174;6.614;2023-03-19T14:36:30;30.02;;;15.48;;
61840;SDS011;47773;53.174;6.614;2023-03-19T14:39:01;34.67;;;16.95;;
61840;SDS011;47773;53.174;6.614;2023-03-19T14:41:34;33.35;;;17.10;;
61840;SDS011;47773;53.174;6.614;2023-03-19T14:47:23;29.15;;;14.57;;
61840;SDS011;47773;53.174;6.614;2023-03-19T14:53:16;29.55;;;14.85;;
61840;SDS011;47773;53.174;6.614;2023-03-19T14:55:49;29.20;;;15.85;;
61840;SDS011;47773;53.174;6.614;2023-03-19T14:58:20;31.52;;;15.48;;
61840;SDS011;47773;53.174;6.614;2023-03-19T15:00:50;30.38;;;15.82;;
61840;SDS011;47773;53.174;6.614;2023-03-19T15:03:19;27.42;;;13.50;;
61840;SDS011;47773;53.174;6.614;2023-03-19T15:05:55;25.95;;;13.00;;
61840;SDS011;47773;53.174;6.614;2023-03-19T15:08:23;25.92;;;13.10;;
61840;SDS011;47773;53.174;6.614;2023-03-19T15:10:56;22.17;;;10.63;;
61840;SDS011;47773;53.174;6.614;2023-03-19T15:19:33;23.90;;;10.70;;
61840;SDS011;47773;53.174;6.614;2023-03-19T15:22:04;23.60;;;11.73;;
61840;SDS011;47773;53.174;6.614;2023-03-19T15:24:40;29.35;;;12.77;;
61840;SDS011;47773;53.174;6.614;2023-03-19T15:29:41;27.60;;;12.95;;
61840;SDS011;47773;53.174;6.614;2023-03-19T15:32:07;26.52;;;13.23;;
61840;SDS011;47773;53.174;6.614;2023-03-19T15:34:33;29.65;;;14.70;;
61840;SDS011;47773;53.174;6.614;2023-03-19T15:37:05;28.63;;;14.50;;
61840;SDS011;47773;53.174;6.614;2023-03-19T15:39:37;31.40;;;13.98;;
61840;SDS011;47773;53.174;6.614;2023-03-19T15:42:11;28.35;;;14.18;;
61840;SDS011;47773;53.174;6.614;2023-03-19T15:44:44;32.28;;;14.98;;
61840;SDS011;47773;53.174;6.614;2023-03-19T15:47:15;29.35;;;14.73;;
61840;SDS011;47773;53.174;6.614;2023-03-19T15:49:56;30.42;;;16.10;;
61840;SDS011;47773;53.174;6.614;2023-03-19T15:52:26;25.20;;;13.40;;
61840;SDS011;47773;53.174;6.614;2023-03-19T15:54:56;34.15;;;15.32;;
61840;SDS011;47773;53.174;6.614;2023-03-19T15:57:25;33.83;;;15.10;;
61840;SDS011;47773;53.174;6.614;2023-03-19T15:59:51;34.13;;;15.77;;
61840;SDS011;47773;53.174;6.614;2023-03-19T16:04:48;35.35;;;16.67;;
61840;SDS011;47773;53.174;6.614;2023-03-19T16:07:24;34.30;;;15.65;;
61840;SDS011;47773;53.174;6.614;2023-03-19T16:13:17;32.20;;;16.15;;
61840;SDS011;47773;53.174;6.614;2023-03-19T16:16:05;37.03;;;17.27;;
61840;SDS011;47773;53.174;6.614;2023-03-19T16:18:40;39.80;;;18.17;;
61840;SDS011;47773;53.174;6.614;2023-03-19T16:21:12;37.78;;;18.65;;
61840;SDS011;47773;53.174;6.614;2023-03-19T16:23:42;44.58;;;20.38;;
61840;SDS011;47773;53.174;6.614;2023-03-19T16:26:20;46.70;;;21.05;;
61840;SDS011;47773;53.174;6.614;2023-03-19T16:28:56;47.08;;;20.13;;
61840;SDS011;47773;53.174;6.614;2023-03-19T16:31:25;40.03;;;18.88;;
61840;SDS011;47773;53.174;6.614;2023-03-19T16:34:01;43.97;;;20.15;;
61840;SDS011;47773;53.174;6.614;2023-03-19T16:36:27;43.47;;;18.95;;
61840;SDS011;47773;53.174;6.614;2023-03-19T16:38:58;42.05;;;19.13;;
61840;SDS011;47773;53.174;6.614;2023-03-19T16:41:46;42.08;;;19.10;;
61840;SDS011;47773;53.174;6.614;2023-03-19T16:44:38;45.30;;;19.53;;
61840;SDS011;47773;53.174;6.614;2023-03-19T16:47:09;43.10;;;18.15;;
61840;SDS011;47773;53.174;6.614;2023-03-19T16:49:36;42.25;;;19.25;;
61840;SDS011;47773;53.174;6.614;2023-03-19T16:52:01;40.05;;;17.13;;